Flight Briefing for CPX664

Departure Arrival
Palm Beach International Airport (KPBI)
Click to view FAA NOTAMS
Miami International Airport (KMIA)
Click to view FAA NOTAMS
Departure Time Arrival Time
N/A N/A
Aircraft Distance
SF340AF 120nm
Departure METAR Arrival METAR
KPBI 221053Z 33007KT 10SM CLR 13/09 A3005 RMK AO2 SLP174 T01280089 $ KMIA 221053Z 33009G15KT 10SM CLR 15/12 A3005 RMK AO2 SLP176 T01500117
Suggested Route
BUFIT2 HILEY HILEY7


View recent IFR Routes data
Notes



Charts and Procedures

Charts for KPBI
No chart available
Charts for KMIA
No chart available

Windy.com Weather Map